Current Weather

Chicago O'Hare International

Chicago, Illinois (KORD)

Report from: Monday, June 27, 2022 5:51 AM CDT
Current time: Monday, June 27, 2022 6:24 AM CDT

Nearby weather
Weather history
Weather forecast

Temperature16.1°C (61.0°F)
Dew point8.9°C (48.0°F)
Winds 7 kts (3.6 m/s, 8.1 mph) Northwest (320°)
Visibility10 mi. (16.1 km)
Clouds Sky clear
Altimeter30.19 in.Hg (1022 mB)
Relative humidity62 %
Density altitude-14 ft. (-4 m)
Sea-level pressure102.2 kPa (1022 mB, 30.18 in.Hg)
Remarks System requires maintenance
Automated weather observing station with precipitation discriminator
Flight conditions Visual Meteorological Conditions
Raw dataKORD 271051Z 32007KT 10SM CLR 16/09 A3019 RMK AO2 SLP221 T01610089 $
An error has occurred. This application may no longer respond until reloaded. Reload 🗙